Time;durP1;ratioP1;P1;durP2;ratioP2;P2;SDS_P1;SDS_P2;PMS_P1;PMS_P2;Temp;Humidity;BMP_temperature;BMP_pressure;BME280_temperature;BME280_humidity;BME280_pressure;Samples;Min_cycle;Max_cycle;Signal;HPM_P1;HPM_P2
2023/11/20 00:00:42;;;;;;;6.77;4.47;;;;;21.90;99756.00;;;;2068910;28;20267;-65
2023/11/20 00:01:42;;;;;;;6.57;4.53;;;;;21.80;99765.00;;;;2065207;28;20227;-65
2023/11/20 00:02:43;;;;;;;6.70;4.40;;;;;21.90;99755.00;;;;2062879;28;20277;-65
2023/11/20 00:03:43;;;;;;;7.43;4.30;;;;;21.90;99752.00;;;;2054374;28;20253;-65
2023/11/20 00:04:43;;;;;;;6.07;4.40;;;;;21.90;99756.00;;;;2065080;28;20247;-65
2023/11/20 00:05:44;;;;;;;7.03;4.63;;;;;21.80;99745.00;;;;2067456;28;20643;-65
2023/11/20 00:06:44;;;;;;;6.50;4.27;;;;;21.80;99760.00;;;;2067316;28;20708;-65
2023/11/20 00:07:46;;;;;;;6.30;3.50;;;;;21.80;99744.00;;;;2064688;28;20686;-65
2023/11/20 00:08:46;;;;;;;6.72;3.90;;;;;21.80;99748.00;;;;2055102;28;20214;-65
2023/11/20 00:09:46;;;;;;;6.73;3.73;;;;;21.80;99750.00;;;;2065125;28;20238;-65
2023/11/20 00:10:47;;;;;;;5.50;4.20;;;;;21.80;99760.00;;;;2064114;28;20210;-65
2023/11/20 00:11:47;;;;;;;5.30;3.70;;;;;21.80;99761.00;;;;2064998;28;20211;-65
2023/11/20 00:12:47;;;;;;;5.10;3.70;;;;;21.80;99744.00;;;;2064408;28;20257;-65
2023/11/20 00:13:48;;;;;;;5.53;3.37;;;;;21.80;99765.00;;;;2055415;28;20211;-65
2023/11/20 00:14:48;;;;;;;5.60;3.73;;;;;21.80;99753.00;;;;2063715;28;20241;-65
2023/11/20 00:15:48;;;;;;;5.90;3.10;;;;;21.80;99743.00;;;;2065668;28;20207;-65
2023/11/20 00:16:49;;;;;;;7.50;3.90;;;;;21.80;99748.00;;;;2064920;28;20242;-65
2023/11/20 00:17:50;;;;;;;5.70;3.67;;;;;21.80;99718.00;;;;2069358;28;20709;-65
2023/11/20 00:18:50;;;;;;;6.57;3.83;;;;;21.80;99747.00;;;;2055941;28;20211;-65
2023/11/20 00:19:50;;;;;;;6.43;3.00;;;;;21.80;99743.00;;;;2063612;28;20207;-65
2023/11/20 00:20:51;;;;;;;5.50;3.30;;;;;21.80;99742.00;;;;2066333;28;20214;-65
2023/11/20 00:21:52;;;;;;;5.20;3.40;;;;;21.80;99751.00;;;;2064946;28;20969;-65
2023/11/20 00:22:52;;;;;;;6.20;3.40;;;;;21.80;99741.00;;;;2070398;28;20261;-65
2023/11/20 00:23:52;;;;;;;5.40;3.37;;;;;21.80;99745.00;;;;2056071;28;20218;-65
2023/11/20 00:24:53;;;;;;;4.70;2.93;;;;;21.80;99747.00;;;;2067947;28;20222;-65
2023/11/20 00:25:53;;;;;;;5.60;3.13;;;;;21.70;99740.00;;;;2065672;28;20219;-65
2023/11/20 00:26:53;;;;;;;6.03;3.20;;;;;21.80;99757.00;;;;2063991;28;20226;-65
2023/11/20 00:27:53;;;;;;;4.73;3.03;;;;;21.70;99742.00;;;;2064545;28;20247;-65
2023/11/20 00:28:56;;;;;;;6.27;3.20;;;;;21.80;99742.00;;;;2053617;28;20218;-65
2023/11/20 00:29:57;;;;;;;4.88;3.17;;;;;21.80;99744.00;;;;2063862;28;20704;-65
2023/11/20 00:30:58;;;;;;;5.53;3.00;;;;;21.80;99749.00;;;;2063394;28;20210;-65
2023/11/20 00:31:58;;;;;;;7.00;3.17;;;;;21.80;99738.00;;;;2062825;28;20215;-65
2023/11/20 00:32:59;;;;;;;5.33;3.07;;;;;21.80;99748.00;;;;2063928;28;20226;-65
2023/11/20 00:33:59;;;;;;;5.73;2.67;;;;;21.80;99748.00;;;;2055088;28;20301;-65
2023/11/20 00:34:59;;;;;;;5.70;3.17;;;;;21.70;99743.00;;;;2063221;28;20572;-65
2023/11/20 00:36:00;;;;;;;4.57;2.77;;;;;21.70;99753.00;;;;2062778;28;20221;-65
2023/11/20 00:37:00;;;;;;;7.50;3.50;;;;;21.70;99737.00;;;;2066031;28;20210;-65
2023/11/20 00:38:01;;;;;;;6.30;3.00;;;;;21.70;99761.00;;;;2065296;28;20553;-65
2023/11/20 00:39:01;;;;;;;4.90;3.13;;;;;21.70;99738.00;;;;2062451;28;20696;-65
2023/11/20 00:40:01;;;;;;;4.90;3.13;;;;;21.70;99751.00;;;;2072451;28;20709;-65
2023/11/20 00:41:02;;;;;;;5.20;2.50;;;;;21.80;99738.00;;;;2064227;28;20215;-65
2023/11/20 00:42:04;;;;;;;5.38;2.80;;;;;21.80;99749.00;;;;2070795;28;20626;-65
2023/11/20 00:43:04;;;;;;;4.45;2.60;;;;;21.80;99740.00;;;;2064243;28;20241;-65
2023/11/20 00:44:06;;;;;;;4.20;3.07;;;;;21.70;99736.00;;;;2056999;28;20230;-65
2023/11/20 00:45:07;;;;;;;4.93;2.53;;;;;21.70;99730.00;;;;2072117;28;20218;-65
2023/11/20 00:46:07;;;;;;;5.33;2.60;;;;;21.70;99746.00;;;;2064822;28;20639;-65
2023/11/20 00:47:07;;;;;;;7.40;2.43;;;;;21.70;99742.00;;;;2064748;28;20289;-65
2023/11/20 00:48:08;;;;;;;5.80;2.60;;;;;21.70;99745.00;;;;2064643;28;20211;-65
2023/11/20 00:49:08;;;;;;;6.20;2.87;;;;;21.70;99736.00;;;;2054301;28;20242;-65
2023/11/20 00:50:09;;;;;;;4.80;2.70;;;;;21.70;99758.00;;;;2061328;28;20214;-65
2023/11/20 00:51:09;;;;;;;4.97;2.50;;;;;21.70;99749.00;;;;2065207;28;20227;-65
2023/11/20 00:52:10;;;;;;;4.10;2.43;;;;;21.70;99749.00;;;;2064615;28;20462;-65
2023/11/20 00:53:11;;;;;;;5.63;2.30;;;;;21.70;99753.00;;;;2064319;28;20226;-65
2023/11/20 00:54:11;;;;;;;4.67;2.10;;;;;21.60;99753.00;;;;2054977;28;20207;-65
2023/11/20 00:55:12;;;;;;;2.70;1.93;;;;;21.60;99752.00;;;;2064766;28;20516;-65
2023/11/20 00:56:12;;;;;;;5.00;2.27;;;;;21.70;99753.00;;;;2063788;28;20226;-65
2023/11/20 00:57:12;;;;;;;8.40;2.43;;;;;21.60;99739.00;;;;2063333;28;20219;-65
2023/11/20 00:58:13;;;;;;;5.70;2.20;;;;;21.60;99749.00;;;;2063290;28;20230;-65
2023/11/20 00:59:13;;;;;;;5.80;2.40;;;;;21.60;99748.00;;;;2053968;28;20214;-65
2023/11/20 01:00:14;;;;;;;4.23;2.23;;;;;21.60;99746.00;;;;2070653;28;20225;-65
2023/11/20 01:01:15;;;;;;;7.38;2.90;;;;;21.60;99752.00;;;;2063741;28;20750;-65
2023/11/20 01:02:15;;;;;;;4.33;1.93;;;;;21.60;99752.00;;;;2064571;28;20229;-65
2023/11/20 01:03:15;;;;;;;4.83;2.33;;;;;21.60;99747.00;;;;2063974;28;20249;-65
2023/11/20 01:04:16;;;;;;;5.90;3.40;;;;;21.60;99756.00;;;;2055074;28;20705;-65
2023/11/20 01:05:18;;;;;;;8.07;2.97;;;;;21.60;99755.00;;;;2063768;28;20226;-65
2023/11/20 01:06:18;;;;;;;3.72;1.92;;;;;21.60;99753.00;;;;2064369;28;20234;-65
2023/11/20 01:07:18;;;;;;;4.73;2.20;;;;;21.60;99749.00;;;;2064306;28;20229;-65
2023/11/20 01:08:19;;;;;;;7.23;2.87;;;;;21.60;99754.00;;;;2055001;28;20218;-65
2023/11/20 01:09:19;;;;;;;4.63;2.00;;;;;21.60;99746.00;;;;2064702;28;20234;-65
2023/11/20 01:10:19;;;;;;;4.60;2.47;;;;;21.60;99762.00;;;;2067707;28;20337;-65
2023/11/20 01:11:20;;;;;;;6.40;2.13;;;;;21.60;99760.00;;;;2062531;28;20219;-65
2023/11/20 01:12:20;;;;;;;5.07;2.37;;;;;21.60;99758.00;;;;2064106;28;20300;-65
2023/11/20 01:13:20;;;;;;;4.20;2.13;;;;;21.60;99758.00;;;;2054862;28;20223;-65
2023/11/20 01:14:21;;;;;;;5.07;2.17;;;;;21.50;99755.00;;;;2064997;28;20211;-65
2023/11/20 01:15:21;;;;;;;6.27;2.20;;;;;21.50;99761.00;;;;2060287;28;20244;-65
2023/11/20 01:16:22;;;;;;;5.40;2.63;;;;;21.60;99744.00;;;;2061055;28;20235;-65
2023/11/20 01:17:22;;;;;;;4.10;1.90;;;;;21.60;99750.00;;;;2064364;28;20273;-65
2023/11/20 01:18:22;;;;;;;4.47;1.77;;;;;21.60;99751.00;;;;2054977;28;20608;-65
2023/11/20 01:19:23;;;;;;;3.73;1.60;;;;;21.60;99755.00;;;;2065451;28;20800;-65
2023/11/20 01:20:23;;;;;;;3.30;1.80;;;;;21.60;99748.00;;;;2066399;28;20235;-65
2023/11/20 01:21:23;;;;;;;3.00;1.73;;;;;21.50;99759.00;;;;2064478;28;20221;-65
2023/11/20 01:22:24;;;;;;;5.03;2.10;;;;;21.50;99749.00;;;;2068376;28;20214;-65
2023/11/20 01:23:24;;;;;;;4.77;2.40;;;;;21.50;99747.00;;;;2054911;28;20584;-65
2023/11/20 01:24:24;;;;;;;3.77;2.00;;;;;21.50;99749.00;;;;2064966;28;20668;-65
2023/11/20 01:25:25;;;;;;;2.67;1.50;;;;;21.50;99750.00;;;;2063493;28;20233;-65
2023/11/20 01:26:25;;;;;;;5.03;2.10;;;;;21.50;99760.00;;;;2064810;28;20291;-65
2023/11/20 01:27:26;;;;;;;5.13;1.67;;;;;21.50;99752.00;;;;2064334;28;20222;-64
2023/11/20 01:28:27;;;;;;;3.90;1.63;;;;;21.50;99756.00;;;;2054900;28;20218;-64
2023/11/20 01:29:27;;;;;;;4.10;2.07;;;;;21.50;99755.00;;;;2063522;28;20261;-65
2023/11/20 01:30:28;;;;;;;5.45;1.80;;;;;21.50;99761.00;;;;2064286;28;20211;-65
2023/11/20 01:31:32;;;;;;;4.90;1.97;;;;;21.50;99763.00;;;;2066533;28;20230;-65
2023/11/20 01:32:32;;;;;;;4.45;2.08;;;;;21.50;99763.00;;;;2069277;28;20875;-65
2023/11/20 01:33:32;;;;;;;3.37;1.77;;;;;21.50;99761.00;;;;2053571;28;20265;-65
2023/11/20 01:34:33;;;;;;;3.90;1.70;;;;;21.50;99756.00;;;;2068428;28;20745;-65
2023/11/20 01:35:33;;;;;;;5.27;2.53;;;;;21.60;99760.00;;;;2064128;28;20207;-64
2023/11/20 01:36:33;;;;;;;2.53;1.30;;;;;21.50;99760.00;;;;2064479;28;20219;-64
2023/11/20 01:37:34;;;;;;;3.60;1.53;;;;;21.60;99752.00;;;;2064452;28;20222;-64
2023/11/20 01:38:34;;;;;;;4.53;2.00;;;;;21.50;99760.00;;;;2055711;28;20286;-64
2023/11/20 01:39:37;;;;;;;3.40;1.70;;;;;21.50;99767.00;;;;2068531;28;20234;-64
2023/11/20 01:40:37;;;;;;;4.10;1.77;;;;;21.50;99764.00;;;;2064993;28;20245;-64
2023/11/20 01:41:37;;;;;;;2.77;1.60;;;;;21.50;99764.00;;;;2068505;28;20219;-64
2023/11/20 01:42:38;;;;;;;6.60;1.50;;;;;21.50;99757.00;;;;2064653;28;20269;-64
2023/11/20 01:43:38;;;;;;;4.50;1.53;;;;;21.50;99764.00;;;;2054454;28;20322;-64
2023/11/20 01:44:38;;;;;;;4.10;1.50;;;;;21.50;99764.00;;;;2064317;28;20207;-64
2023/11/20 01:45:39;;;;;;;3.03;1.50;;;;;21.50;99759.00;;;;2066620;28;20227;-64
2023/11/20 01:46:39;;;;;;;4.60;1.67;;;;;21.50;99761.00;;;;2068493;28;20619;-64
2023/11/20 01:47:39;;;;;;;4.80;1.80;;;;;21.50;99767.00;;;;2064310;28;20209;-64
2023/11/20 01:48:40;;;;;;;3.37;1.30;;;;;21.40;99767.00;;;;2050898;28;20246;-64
2023/11/20 01:49:42;;;;;;;6.50;1.50;;;;;21.40;99764.00;;;;2062597;28;20207;-64
2023/11/20 01:50:42;;;;;;;7.40;1.90;;;;;21.40;99765.00;;;;2063091;28;20203;-65
2023/11/20 01:51:43;;;;;;;4.03;1.70;;;;;21.50;99759.00;;;;2063540;28;20206;-65
2023/11/20 01:52:45;;;;;;;5.50;1.75;;;;;21.50;99746.00;;;;2063816;28;21008;-65
2023/11/20 01:53:45;;;;;;;4.57;1.38;;;;;21.50;99763.00;;;;2061658;28;20218;-65
2023/11/20 01:54:45;;;;;;;3.53;1.43;;;;;21.50;99768.00;;;;2063062;28;20215;-65
2023/11/20 01:55:45;;;;;;;2.63;1.17;;;;;21.50;99763.00;;;;2061169;28;20222;-65
2023/11/20 01:56:46;;;;;;;3.40;1.40;;;;;21.50;99765.00;;;;2063723;28;20206;-65
2023/11/20 01:57:46;;;;;;;3.17;1.13;;;;;21.40;99728.00;;;;2056604;28;20211;-65
2023/11/20 01:58:47;;;;;;;4.40;1.50;;;;;21.40;99774.00;;;;2057263;28;20289;-65
2023/11/20 01:59:47;;;;;;;3.10;1.10;;;;;21.40;99755.00;;;;2065346;28;20568;-65
2023/11/20 02:00:48;;;;;;;3.50;1.30;;;;;21.50;99765.00;;;;2066808;28;20238;-65
2023/11/20 02:01:48;;;;;;;4.13;2.10;;;;;21.50;99762.00;;;;2063543;28;20238;-65
2023/11/20 02:02:49;;;;;;;3.63;1.50;;;;;21.50;99758.00;;;;2060587;28;20215;-65
2023/11/20 02:03:57;;;;;;;2.15;1.27;;;;;21.50;99751.00;;;;2053688;28;20218;-65
2023/11/20 02:04:57;;;;;;;2.65;1.40;;;;;21.40;99763.00;;;;2062819;28;20215;-65
2023/11/20 02:05:57;;;;;;;5.77;1.93;;;;;21.40;99755.00;;;;2060987;28;20219;-65
2023/11/20 02:06:59;;;;;;;2.90;1.27;;;;;21.40;99775.00;;;;2062794;28;20218;-65
2023/11/20 02:07:59;;;;;;;2.35;1.40;;;;;21.40;99766.00;;;;2062516;28;20215;-65
2023/11/20 02:09:00;;;;;;;2.77;1.17;;;;;21.40;99762.00;;;;2045553;28;20218;-65
2023/11/20 02:10:00;;;;;;;2.60;1.00;;;;;21.50;99773.00;;;;2055995;28;20207;-65
2023/11/20 02:11:01;;;;;;;4.53;1.60;;;;;21.40;99777.00;;;;2064131;28;20222;-65
2023/11/20 02:12:01;;;;;;;3.13;1.37;;;;;21.40;99775.00;;;;2065986;28;20501;-65
2023/11/20 02:13:02;;;;;;;4.30;1.30;;;;;21.40;99763.00;;;;2057016;28;20303;-65
2023/11/20 02:14:02;;;;;;;3.70;1.70;;;;;21.40;99744.00;;;;2051461;28;20215;-65
2023/11/20 02:15:04;;;;;;;3.03;1.53;;;;;21.40;99763.00;;;;2062239;28;20612;-65
2023/11/20 02:16:05;;;;;;;3.38;1.63;;;;;21.40;99765.00;;;;2047276;28;20263;-65
2023/11/20 02:17:05;;;;;;;5.00;1.50;;;;;21.40;99766.00;;;;2061456;28;20215;-65
2023/11/20 02:18:29;;;;;;;2.73;1.10;;;;;21.40;99763.00;;;;2056450;28;20451;-65
2023/11/20 02:19:29;;;;;;;3.80;1.50;;;;;21.40;99763.00;;;;2059362;28;20242;-65
2023/11/20 02:20:29;;;;;;;3.33;1.40;;;;;21.40;99759.00;;;;2069017;28;20210;-65
2023/11/20 02:21:30;;;;;;;3.53;1.30;;;;;21.40;99762.00;;;;2063636;28;20219;-65
2023/11/20 02:22:30;;;;;;;3.10;1.27;;;;;21.40;99755.00;;;;2063877;28;20219;-65
2023/11/20 02:23:30;;;;;;;3.30;1.40;;;;;21.40;99755.00;;;;2053794;28;20221;-65
2023/11/20 02:24:31;;;;;;;6.40;1.53;;;;;21.40;99755.00;;;;2064315;28;20214;-65
2023/11/20 02:25:31;;;;;;;2.93;1.13;;;;;21.40;99749.00;;;;2062897;28;20314;-65
2023/11/20 02:26:51;;;;;;;4.53;1.33;;;;;21.40;99749.00;;;;2066335;28;20527;-65
2023/11/20 02:28:18;;;;;;;2.80;1.00;;;;;21.40;99759.00;;;;2066035;28;20229;-65
2023/11/20 02:29:31;;;;;;;2.58;1.10;;;;;21.40;99755.00;;;;2040088;28;20217;-65
2023/11/20 02:30:31;;;;;;;2.50;1.15;;;;;21.40;99757.00;;;;2063769;28;20222;-65
2023/11/20 02:31:32;;;;;;;3.23;1.07;;;;;21.30;99749.00;;;;2063345;28;20234;-65
2023/11/20 02:32:33;;;;;;;1.95;1.05;;;;;21.30;99755.00;;;;2063107;28;20956;-65
2023/11/20 02:33:36;;;;;;;3.03;1.10;;;;;21.40;99767.00;;;;2055419;28;20268;-65
2023/11/20 02:34:37;;;;;;;3.10;1.30;;;;;21.40;99760.00;;;;2071297;28;20553;-65
2023/11/20 02:35:37;;;;;;;2.40;1.10;;;;;21.40;99762.00;;;;2068276;28;20210;-65
2023/11/20 02:36:38;;;;;;;2.83;1.00;;;;;21.30;99765.00;;;;2062693;28;20238;-65
2023/11/20 02:37:40;;;;;;;2.87;1.27;;;;;21.40;99759.00;;;;2063302;28;20234;-65
2023/11/20 02:38:41;;;;;;;3.25;1.05;;;;;21.30;99749.00;;;;2053664;28;20256;-65
2023/11/20 02:39:42;;;;;;;3.90;1.35;;;;;21.30;99760.00;;;;2060591;28;20215;-65
2023/11/20 02:40:43;;;;;;;1.95;0.95;;;;;21.30;99767.00;;;;2065354;28;20878;-65
2023/11/20 02:41:43;;;;;;;3.53;1.20;;;;;21.30;99753.00;;;;2068477;28;20444;-65
2023/11/20 02:42:43;;;;;;;3.10;1.07;;;;;21.30;99758.00;;;;2064107;28;20222;-65
2023/11/20 02:43:44;;;;;;;3.07;1.17;;;;;21.30;99762.00;;;;2058411;28;20227;-65
2023/11/20 02:44:45;;;;;;;5.20;1.40;;;;;21.30;99759.00;;;;2063291;28;20586;-65
2023/11/20 02:45:46;;;;;;;4.13;1.73;;;;;21.30;99765.00;;;;2064454;28;20498;-65
2023/11/20 02:46:46;;;;;;;4.10;1.20;;;;;21.40;99753.00;;;;2062349;28;20211;-65
2023/11/20 02:47:47;;;;;;;3.47;1.27;;;;;21.40;99758.00;;;;2064435;28;20261;-65
2023/11/20 02:48:47;;;;;;;3.03;1.40;;;;;21.40;99755.00;;;;2054193;28;20756;-65
2023/11/20 02:49:48;;;;;;;4.27;1.13;;;;;21.40;99760.00;;;;2059260;28;20210;-65
2023/11/20 02:50:49;;;;;;;4.50;1.20;;;;;21.40;99759.00;;;;2063356;28;20207;-65
2023/11/20 02:51:50;;;;;;;2.97;1.10;;;;;21.40;99751.00;;;;2063384;28;20211;-65
2023/11/20 02:52:52;;;;;;;3.60;1.10;;;;;21.40;99751.00;;;;2059484;28;20450;-65
2023/11/20 02:53:52;;;;;;;1.95;0.80;;;;;21.40;99756.00;;;;2052039;28;20226;-65
2023/11/20 02:54:53;;;;;;;6.67;1.40;;;;;21.40;99754.00;;;;2063953;28;20245;-65
2023/11/20 02:55:53;;;;;;;3.50;1.10;;;;;21.30;99747.00;;;;2066659;28;20561;-65
2023/11/20 02:56:53;;;;;;;3.17;1.10;;;;;21.30;99761.00;;;;2062697;28;20296;-65
2023/11/20 02:57:53;;;;;;;3.07;0.80;;;;;21.30;99754.00;;;;2062838;28;20227;-65
2023/11/20 02:58:55;;;;;;;2.20;0.80;;;;;21.30;99757.00;;;;2053254;28;20255;-65
2023/11/20 02:59:55;;;;;;;2.05;0.93;;;;;21.30;99747.00;;;;2067416;28;20241;-65
2023/11/20 03:00:56;;;;;;;2.93;1.80;;;;;21.30;99758.00;;;;2066515;28;20225;-65
2023/11/20 03:01:56;;;;;;;3.67;1.30;;;;;21.30;99754.00;;;;2064285;28;20450;-65
2023/11/20 03:02:57;;;;;;;4.57;1.70;;;;;21.30;99755.00;;;;2063709;28;20555;-65
2023/11/20 03:03:58;;;;;;;1.73;1.00;;;;;21.30;99761.00;;;;2051853;28;20222;-64
2023/11/20 03:04:58;;;;;;;3.15;1.10;;;;;21.30;99762.00;;;;2063850;28;20571;-64
2023/11/20 03:05:59;;;;;;;2.80;1.10;;;;;21.30;99755.00;;;;2063643;28;20226;-64
2023/11/20 03:07:00;;;;;;;2.90;1.40;;;;;21.30;99756.00;;;;2067054;28;20222;-64
2023/11/20 03:08:01;;;;;;;2.83;0.90;;;;;21.30;99759.00;;;;2063064;28;20223;-64
2023/11/20 03:09:02;;;;;;;2.70;1.10;;;;;21.30;99764.00;;;;2053848;28;20472;-64
2023/11/20 03:10:03;;;;;;;3.75;1.10;;;;;21.30;99763.00;;;;2065138;28;20655;-65
2023/11/20 03:11:04;;;;;;;2.33;1.10;;;;;21.30;99758.00;;;;2063826;28;20218;-65
2023/11/20 03:12:04;;;;;;;2.73;1.03;;;;;21.30;99770.00;;;;2064217;28;20215;-65
2023/11/20 03:13:05;;;;;;;3.03;1.07;;;;;21.30;99751.00;;;;2063539;28;20234;-65
2023/11/20 03:14:05;;;;;;;2.60;1.13;;;;;21.30;99761.00;;;;2053133;28;20219;-65
2023/11/20 03:15:06;;;;;;;2.93;1.00;;;;;21.30;99757.00;;;;2063776;28;20246;-65
2023/11/20 03:16:07;;;;;;;3.97;1.20;;;;;21.30;99747.00;;;;2064390;28;20207;-65
2023/11/20 03:17:07;;;;;;;2.53;1.33;;;;;21.30;99754.00;;;;2062945;28;20485;-65
2023/11/20 03:18:07;;;;;;;2.17;0.90;;;;;21.30;99759.00;;;;2063524;28;20472;-65
2023/11/20 03:19:08;;;;;;;3.67;1.40;;;;;21.30;99759.00;;;;2058263;28;20225;-65
2023/11/20 03:20:11;;;;;;;2.97;1.10;;;;;21.20;99758.00;;;;2065361;28;20218;-65
2023/11/20 03:21:11;;;;;;;2.47;1.30;;;;;21.20;99752.00;;;;2061131;28;20956;-65
2023/11/20 03:22:11;;;;;;;3.87;1.23;;;;;21.20;99761.00;;;;2063668;28;20207;-65
2023/11/20 03:23:13;;;;;;;3.37;1.40;;;;;21.20;99754.00;;;;2063368;28;20203;-65
2023/11/20 03:24:14;;;;;;;3.65;1.27;;;;;21.20;99765.00;;;;2054189;28;20274;-65
2023/11/20 03:25:14;;;;;;;3.00;1.08;;;;;21.20;99754.00;;;;2061528;28;20654;-65
2023/11/20 03:26:25;;;;;;;6.07;1.40;;;;;21.30;99751.00;;;;2068536;28;20218;-65
2023/11/20 03:27:25;;;;;;;2.97;1.13;;;;;21.30;99763.00;;;;2055709;28;20262;-65
2023/11/20 03:28:26;;;;;;;3.97;1.57;;;;;21.30;99759.00;;;;2049877;28;20702;-65
2023/11/20 03:29:26;;;;;;;2.90;1.03;;;;;21.20;99762.00;;;;2063512;28;20237;-65
2023/11/20 03:30:27;;;;;;;3.53;1.30;;;;;21.20;99757.00;;;;2063285;28;20214;-65
2023/11/20 03:31:36;;;;;;;4.40;1.40;;;;;21.20;99760.00;;;;2063102;28;20642;-65
2023/11/20 03:32:36;;;;;;;2.83;1.17;;;;;21.20;99755.00;;;;2056751;28;20466;-65
2023/11/20 03:33:37;;;;;;;4.60;1.37;;;;;21.20;99763.00;;;;2057375;28;20219;-65
2023/11/20 03:34:37;;;;;;;4.97;1.60;;;;;21.20;99757.00;;;;2063690;28;20223;-65
2023/11/20 03:35:37;;;;;;;3.40;1.23;;;;;21.20;99763.00;;;;2062660;28;20674;-65
2023/11/20 03:36:38;;;;;;;5.73;1.80;;;;;21.20;99766.00;;;;2063615;28;20215;-65
2023/11/20 03:37:38;;;;;;;5.57;1.17;;;;;21.20;99759.00;;;;2063264;28;20215;-65
2023/11/20 03:38:38;;;;;;;2.37;1.10;;;;;21.20;99750.00;;;;2056286;28;20284;-65
2023/11/20 03:39:39;;;;;;;3.50;1.33;;;;;21.20;99759.00;;;;2063041;28;20218;-65
2023/11/20 03:40:39;;;;;;;2.43;1.00;;;;;21.20;99764.00;;;;2063148;28;20226;-65
2023/11/20 03:41:39;;;;;;;2.80;1.10;;;;;21.20;99757.00;;;;2063824;28;20222;-65
2023/11/20 03:42:40;;;;;;;3.80;1.27;;;;;21.20;99750.00;;;;2065129;28;20638;-65
2023/11/20 03:43:40;;;;;;;4.40;1.37;;;;;21.20;99760.00;;;;2059166;28;20629;-65
2023/11/20 03:44:40;;;;;;;4.10;1.17;;;;;21.20;99757.00;;;;2063472;28;20706;-65
2023/11/20 03:45:41;;;;;;;2.03;1.00;;;;;21.20;99753.00;;;;2067636;28;20250;-65
2023/11/20 03:46:41;;;;;;;4.47;1.17;;;;;21.20;99767.00;;;;2063624;28;20223;-65
2023/11/20 03:47:41;;;;;;;3.40;1.00;;;;;21.20;99745.00;;;;2064588;28;20233;-65
2023/11/20 03:48:42;;;;;;;2.40;0.97;;;;;21.20;99757.00;;;;2053823;28;21908;-65
2023/11/20 03:49:42;;;;;;;4.67;1.60;;;;;21.10;99757.00;;;;2062782;28;21060;-65
2023/11/20 03:50:42;;;;;;;2.93;1.20;;;;;21.10;99754.00;;;;2063395;28;20970;-65
2023/11/20 03:51:43;;;;;;;3.03;1.20;;;;;21.10;99755.00;;;;2063656;28;20702;-65
2023/11/20 03:52:44;;;;;;;4.77;1.60;;;;;21.10;99765.00;;;;2063605;28;20219;-65
2023/11/20 03:53:44;;;;;;;2.40;1.00;;;;;21.10;99766.00;;;;2054152;28;20648;-65
2023/11/20 03:54:45;;;;;;;2.47;1.40;;;;;21.10;99767.00;;;;2063795;28;20207;-65
2023/11/20 03:55:45;;;;;;;3.50;1.23;;;;;21.10;99760.00;;;;2063072;28;20213;-65
2023/11/20 03:56:45;;;;;;;3.30;1.43;;;;;21.10;99752.00;;;;2061845;28;20211;-65
2023/11/20 03:57:46;;;;;;;4.03;1.40;;;;;21.20;99761.00;;;;2061549;28;20218;-65
2023/11/20 03:58:46;;;;;;;4.80;1.50;;;;;21.20;99763.00;;;;2054002;28;20693;-65
2023/11/20 03:59:47;;;;;;;2.80;1.27;;;;;21.20;99765.00;;;;2066352;28;20217;-65
2023/11/20 04:00:47;;;;;;;3.50;1.17;;;;;21.20;99770.00;;;;2063737;28;20203;-65
2023/11/20 04:01:47;;;;;;;2.77;0.80;;;;;21.20;99765.00;;;;2063452;28;20213;-65
2023/11/20 04:02:48;;;;;;;2.80;1.17;;;;;21.20;99763.00;;;;2062958;28;20207;-65
2023/11/20 04:03:48;;;;;;;5.40;1.40;;;;;21.20;99758.00;;;;2053470;28;20674;-65
2023/11/20 04:04:48;;;;;;;3.90;1.60;;;;;21.20;99773.00;;;;2063506;28;20207;-65
2023/11/20 04:05:48;;;;;;;5.77;1.63;;;;;21.20;99774.00;;;;2063220;28;20231;-65
2023/11/20 04:06:49;;;;;;;3.77;1.13;;;;;21.10;99769.00;;;;2064507;28;20578;-65
2023/11/20 04:07:49;;;;;;;6.63;1.30;;;;;21.10;99773.00;;;;2064682;28;20554;-65
2023/11/20 04:08:49;;;;;;;4.40;1.40;;;;;21.10;99769.00;;;;2056510;28;20584;-65
2023/11/20 04:09:50;;;;;;;2.23;0.87;;;;;21.20;99769.00;;;;2069981;28;20906;-65
2023/11/20 04:10:50;;;;;;;3.60;1.47;;;;;21.20;99775.00;;;;2065016;28;20214;-65
2023/11/20 04:11:51;;;;;;;8.90;1.60;;;;;21.10;99768.00;;;;2062625;28;20237;-65
2023/11/20 04:12:52;;;;;;;3.08;1.30;;;;;21.10;99784.00;;;;2064972;28;20294;-65
2023/11/20 04:13:52;;;;;;;4.30;0.73;;;;;21.20;99772.00;;;;2062344;28;20229;-65
2023/11/20 04:14:52;;;;;;;6.07;1.40;;;;;21.10;99761.00;;;;2076856;28;20299;-65
2023/11/20 04:15:52;;;;;;;5.20;1.33;;;;;21.10;99778.00;;;;2067393;28;20214;-65
2023/11/20 04:16:53;;;;;;;4.20;1.40;;;;;21.10;99774.00;;;;2063856;28;20217;-65
2023/11/20 04:17:53;;;;;;;4.97;1.20;;;;;21.10;99767.00;;;;2065117;28;20215;-65
2023/11/20 04:18:53;;;;;;;4.03;1.73;;;;;21.10;99767.00;;;;2054743;28;20257;-65
2023/11/20 04:19:54;;;;;;;3.43;1.20;;;;;21.10;99767.00;;;;2065141;28;20213;-65
2023/11/20 04:20:54;;;;;;;3.33;1.50;;;;;21.10;99765.00;;;;2067376;28;20230;-65
2023/11/20 04:21:54;;;;;;;3.37;1.30;;;;;21.10;99760.00;;;;2068849;28;20215;-65
2023/11/20 04:22:55;;;;;;;2.70;1.33;;;;;21.10;99763.00;;;;2065006;28;20245;-65
2023/11/20 04:23:55;;;;;;;4.27;1.40;;;;;21.10;99765.00;;;;2058934;28;20219;-65
2023/11/20 04:24:55;;;;;;;2.97;1.00;;;;;21.10;99765.00;;;;2064875;28;20230;-65
2023/11/20 04:25:56;;;;;;;3.63;1.67;;;;;21.10;99759.00;;;;2063601;28;20207;-65
2023/11/20 04:26:56;;;;;;;3.40;1.40;;;;;21.10;99769.00;;;;2063399;28;20227;-65
2023/11/20 04:27:56;;;;;;;4.60;1.30;;;;;21.10;99758.00;;;;2064203;28;20211;-65
2023/11/20 04:28:58;;;;;;;3.63;1.10;;;;;21.10;99763.00;;;;2055214;28;20346;-65
2023/11/20 04:29:59;;;;;;;3.05;1.20;;;;;21.10;99759.00;;;;2064251;28;23162;-65
2023/11/20 04:31:00;;;;;;;4.30;1.50;;;;;21.10;99773.00;;;;2067965;28;20246;-65
2023/11/20 04:32:00;;;;;;;3.75;1.02;;;;;21.00;99767.00;;;;2064888;28;20215;-65
2023/11/20 04:33:01;;;;;;;3.70;1.33;;;;;21.10;99766.00;;;;2064503;28;20916;-65
2023/11/20 04:34:01;;;;;;;3.23;1.33;;;;;21.00;99771.00;;;;2052271;28;20222;-65
2023/11/20 04:35:01;;;;;;;3.53;1.33;;;;;21.10;99770.00;;;;2066395;28;20226;-65
2023/11/20 04:36:02;;;;;;;4.77;1.10;;;;;21.10;99769.00;;;;2066072;28;20219;-65
2023/11/20 04:37:03;;;;;;;2.88;1.58;;;;;21.00;99770.00;;;;2064071;28;20233;-65
2023/11/20 04:38:03;;;;;;;6.13;1.67;;;;;21.00;99764.00;;;;2061531;28;20693;-65
2023/11/20 04:39:03;;;;;;;4.00;1.07;;;;;21.00;99773.00;;;;2055260;28;20641;-65
2023/11/20 04:40:05;;;;;;;3.60;1.60;;;;;21.00;99774.00;;;;2067199;28;20658;-65
2023/11/20 04:41:05;;;;;;;4.35;1.20;;;;;21.00;99773.00;;;;2067797;28;20227;-65
2023/11/20 04:42:06;;;;;;;4.30;1.30;;;;;21.00;99755.00;;;;2064240;28;20222;-65
2023/11/20 04:43:06;;;;;;;3.30;1.13;;;;;21.00;99773.00;;;;2061954;28;20222;-65
2023/11/20 04:44:06;;;;;;;4.07;1.20;;;;;21.00;99766.00;;;;2054958;28;20670;-65
2023/11/20 04:45:08;;;;;;;3.23;1.50;;;;;21.00;99769.00;;;;2066107;28;20688;-65
2023/11/20 04:46:12;;;;;;;3.45;1.00;;;;;21.00;99770.00;;;;2064482;28;20285;-65
2023/11/20 04:47:13;;;;;;;6.65;1.60;;;;;21.00;99771.00;;;;2061918;28;20860;-65
2023/11/20 04:48:13;;;;;;;4.53;1.20;;;;;21.00;99761.00;;;;2064770;28;20222;-65
2023/11/20 04:49:13;;;;;;;5.10;1.43;;;;;21.00;99752.00;;;;2056220;28;20317;-65
2023/11/20 04:50:15;;;;;;;3.77;1.43;;;;;21.00;99759.00;;;;2066827;28;20224;-65
2023/11/20 04:51:22;;;;;;;5.80;1.70;;;;;21.00;99758.00;;;;2064200;28;20230;-65
2023/11/20 04:52:22;;;;;;;5.22;1.50;;;;;21.00;99753.00;;;;2065462;28;20249;-64
2023/11/20 04:53:24;;;;;;;3.27;1.30;;;;;21.00;99764.00;;;;2054965;28;20223;-64
2023/11/20 04:54:24;;;;;;;4.97;1.67;;;;;21.00;99761.00;;;;2066318;28;20313;-64
2023/11/20 04:55:25;;;;;;;4.87;1.37;;;;;21.00;99757.00;;;;2063403;28;20222;-64
2023/11/20 04:56:25;;;;;;;3.60;1.40;;;;;21.00;99759.00;;;;2062402;28;20574;-65
2023/11/20 04:57:25;;;;;;;5.20;1.17;;;;;21.00;99758.00;;;;2062779;28;20666;-65
2023/11/20 04:58:25;;;;;;;3.80;1.13;;;;;21.00;99761.00;;;;2053057;28;20740;-65
2023/11/20 04:59:26;;;;;;;4.70;1.03;;;;;21.00;99760.00;;;;2071132;28;20725;-65
2023/11/20 05:00:27;;;;;;;5.40;1.30;;;;;21.00;99753.00;;;;2064619;28;20558;-65
2023/11/20 05:01:31;;;;;;;3.20;1.03;;;;;21.00;99753.00;;;;2061754;28;20725;-65
2023/11/20 05:02:31;;;;;;;2.05;0.98;;;;;21.00;99750.00;;;;2056759;28;20228;-65
2023/11/20 05:03:31;;;;;;;3.73;0.97;;;;;21.00;99758.00;;;;2056087;28;20289;-65
2023/11/20 05:04:32;;;;;;;4.63;1.20;;;;;21.00;99752.00;;;;2064645;28;23103;-65
2023/11/20 05:05:32;;;;;;;3.73;1.20;;;;;21.00;99765.00;;;;2064541;28;20242;-65